sensor_id;sensor_type;location;lat;lon;timestamp;pressure;altitude;pressure_sealevel;temperature;humidity
65534;BME280;53640;55.838;37.184;2023-07-31T00:01:52;98393.16;;;14.99;51.51
65534;BME280;53640;55.838;37.184;2023-07-31T00:04:18;98373.53;;;14.87;52.27
65534;BME280;53640;55.838;37.184;2023-07-31T00:06:45;98406.53;;;15.06;52.47
65534;BME280;53640;55.838;37.184;2023-07-31T00:09:11;98409.22;;;14.96;52.27
65534;BME280;53640;55.838;37.184;2023-07-31T00:11:38;98420.41;;;15.04;53.01
65534;BME280;53640;55.838;37.184;2023-07-31T00:14:04;98397.78;;;14.88;53.00
65534;BME280;53640;55.838;37.184;2023-07-31T00:16:32;98386.88;;;14.78;53.24
65534;BME280;53640;55.838;37.184;2023-07-31T00:18:58;98410.06;;;14.91;53.29
65534;BME280;53640;55.838;37.184;2023-07-31T00:21:25;98382.47;;;14.62;53.57
65534;BME280;53640;55.838;37.184;2023-07-31T00:23:51;98388.16;;;14.60;53.67
65534;BME280;53640;55.838;37.184;2023-07-31T00:26:17;98433.44;;;14.82;53.52
65534;BME280;53640;55.838;37.184;2023-07-31T00:28:44;98424.19;;;14.78;53.24
65534;BME280;53640;55.838;37.184;2023-07-31T00:31:10;98415.19;;;14.67;53.26
65534;BME280;53640;55.838;37.184;2023-07-31T00:33:37;98420.63;;;14.72;53.33
65534;BME280;53640;55.838;37.184;2023-07-31T00:36:04;98364.94;;;14.37;53.89
65534;BME280;53640;55.838;37.184;2023-07-31T00:38:30;98383.47;;;14.46;53.47
65534;BME280;53640;55.838;37.184;2023-07-31T00:40:57;98371.78;;;14.45;53.96
65534;BME280;53640;55.838;37.184;2023-07-31T00:43:24;98415.19;;;14.67;54.13
65534;BME280;53640;55.838;37.184;2023-07-31T00:45:51;98379.66;;;14.47;54.22
65534;BME280;53640;55.838;37.184;2023-07-31T00:48:18;98409.72;;;14.67;53.98
65534;BME280;53640;55.838;37.184;2023-07-31T00:50:45;98384.88;;;14.53;54.15
65534;BME280;53640;55.838;37.184;2023-07-31T00:53:11;98388.41;;;14.54;54.19
65534;BME280;53640;55.838;37.184;2023-07-31T00:55:39;98405.34;;;14.66;53.69
65534;BME280;53640;55.838;37.184;2023-07-31T00:58:06;98355.13;;;14.36;53.71
65534;BME280;53640;55.838;37.184;2023-07-31T01:00:33;98384.59;;;14.55;53.97
65534;BME280;53640;55.838;37.184;2023-07-31T01:03:01;98376.94;;;14.47;54.08
65534;BME280;53640;55.838;37.184;2023-07-31T01:05:49;98404.81;;;14.64;53.70
65534;BME280;53640;55.838;37.184;2023-07-31T01:10:58;98339.81;;;14.20;53.83
65534;BME280;53640;55.838;37.184;2023-07-31T01:13:26;98394.38;;;14.46;53.81
65534;BME280;53640;55.838;37.184;2023-07-31T01:15:53;98407.19;;;14.55;53.71
65534;BME280;53640;55.838;37.184;2023-07-31T01:18:21;98380.44;;;14.32;53.76
65534;BME280;53640;55.838;37.184;2023-07-31T01:20:54;98375.78;;;14.27;53.81
65534;BME280;53640;55.838;37.184;2023-07-31T01:26:12;98372.47;;;14.15;54.08
65534;BME280;53640;55.838;37.184;2023-07-31T01:29:03;98410.13;;;14.33;54.38
65534;BME280;53640;55.838;37.184;2023-07-31T01:31:33;98418.00;;;14.30;54.54
65534;BME280;53640;55.838;37.184;2023-07-31T01:34:01;98403.53;;;14.19;54.45
65534;BME280;53640;55.838;37.184;2023-07-31T01:36:29;98398.88;;;14.14;54.35
65534;BME280;53640;55.838;37.184;2023-07-31T01:39:00;98402.94;;;14.12;55.11
65534;BME280;53640;55.838;37.184;2023-07-31T01:41:27;98413.59;;;14.19;54.78
65534;BME280;53640;55.838;37.184;2023-07-31T01:43:54;98382.22;;;14.06;55.50
65534;BME280;53640;55.838;37.184;2023-07-31T01:46:20;98341.25;;;13.75;55.25
65534;BME280;53640;55.838;37.184;2023-07-31T01:48:47;98381.38;;;14.00;55.25
65534;BME280;53640;55.838;37.184;2023-07-31T01:51:13;98412.50;;;14.14;55.40
65534;BME280;53640;55.838;37.184;2023-07-31T01:53:39;98394.19;;;14.00;55.44
65534;BME280;53640;55.838;37.184;2023-07-31T01:56:06;98402.06;;;14.06;55.68
65534;BME280;53640;55.838;37.184;2023-07-31T01:58:33;98399.63;;;14.05;55.42
65534;BME280;53640;55.838;37.184;2023-07-31T02:01:00;98339.06;;;13.72;55.69
65534;BME280;53640;55.838;37.184;2023-07-31T02:03:27;98403.47;;;14.09;55.72
65534;BME280;53640;55.838;37.184;2023-07-31T02:05:54;98380.22;;;13.86;55.95
65534;BME280;53640;55.838;37.184;2023-07-31T02:08:20;98396.91;;;14.05;56.18
65534;BME280;53640;55.838;37.184;2023-07-31T02:10:47;98340.91;;;13.66;56.21
65534;BME280;53640;55.838;37.184;2023-07-31T02:13:13;98375.31;;;13.88;55.92
65534;BME280;53640;55.838;37.184;2023-07-31T02:15:40;98401.22;;;13.96;55.75
65534;BME280;53640;55.838;37.184;2023-07-31T02:18:06;98391.94;;;13.91;55.78
65534;BME280;53640;55.838;37.184;2023-07-31T02:20:34;98371.19;;;13.80;55.93
65534;BME280;53640;55.838;37.184;2023-07-31T02:23:02;98367.34;;;13.76;55.65
65534;BME280;53640;55.838;37.184;2023-07-31T02:25:30;98386.19;;;13.88;56.04
65534;BME280;53640;55.838;37.184;2023-07-31T02:27:57;98407.78;;;14.00;55.83
65534;BME280;53640;55.838;37.184;2023-07-31T02:30:25;98360.00;;;13.72;56.11
65534;BME280;53640;55.838;37.184;2023-07-31T02:32:52;98369.25;;;13.76;56.07
65534;BME280;53640;55.838;37.184;2023-07-31T02:35:19;98376.09;;;13.83;55.67
65534;BME280;53640;55.838;37.184;2023-07-31T02:37:46;98370.13;;;13.81;55.98
65534;BME280;53640;55.838;37.184;2023-07-31T02:40:13;98389.22;;;13.91;56.11
65534;BME280;53640;55.838;37.184;2023-07-31T02:42:39;98418.69;;;14.05;55.94
65534;BME280;53640;55.838;37.184;2023-07-31T02:45:08;98373.09;;;13.80;55.62
65534;BME280;53640;55.838;37.184;2023-07-31T02:47:34;98404.50;;;14.03;56.03
65534;BME280;53640;55.838;37.184;2023-07-31T02:50:02;98403.97;;;14.01;56.10
65534;BME280;53640;55.838;37.184;2023-07-31T02:52:30;98376.91;;;13.84;56.15
65534;BME280;53640;55.838;37.184;2023-07-31T02:54:57;98403.97;;;14.01;55.91
65534;BME280;53640;55.838;37.184;2023-07-31T02:57:24;98397.41;;;13.97;56.11
65534;BME280;53640;55.838;37.184;2023-07-31T02:59:50;98391.41;;;13.95;56.16
65534;BME280;53640;55.838;37.184;2023-07-31T03:02:17;98382.13;;;13.85;55.88
65534;BME280;53640;55.838;37.184;2023-07-31T03:04:43;98411.91;;;14.07;55.95
65534;BME280;53640;55.838;37.184;2023-07-31T03:07:09;98376.44;;;13.92;56.15
65534;BME280;53640;55.838;37.184;2023-07-31T03:09:36;98418.75;;;14.20;55.77
65534;BME280;53640;55.838;37.184;2023-07-31T03:12:02;98392.28;;;14.05;56.07
65534;BME280;53640;55.838;37.184;2023-07-31T03:14:29;98375.97;;;14.05;56.27
65534;BME280;53640;55.838;37.184;2023-07-31T03:16:56;98371.34;;;14.06;55.88
65534;BME280;53640;55.838;37.184;2023-07-31T03:19:22;98370.81;;;14.09;56.40
65534;BME280;53640;55.838;37.184;2023-07-31T03:21:49;98408.47;;;14.32;56.53
65534;BME280;53640;55.838;37.184;2023-07-31T03:24:16;98386.38;;;14.24;56.58
65534;BME280;53640;55.838;37.184;2023-07-31T03:26:42;98379.84;;;14.25;56.18
65534;BME280;53640;55.838;37.184;2023-07-31T03:29:09;98406.06;;;14.46;56.19
65534;BME280;53640;55.838;37.184;2023-07-31T03:31:35;98406.66;;;14.53;56.19
65534;BME280;53640;55.838;37.184;2023-07-31T03:34:02;98398.47;;;14.53;56.34
65534;BME280;53640;55.838;37.184;2023-07-31T03:36:30;98406.44;;;14.70;56.45
65534;BME280;53640;55.838;37.184;2023-07-31T03:38:56;98393.91;;;14.64;56.19
65534;BME280;53640;55.838;37.184;2023-07-31T03:41:22;98374.28;;;14.62;55.88
65534;BME280;53640;55.838;37.184;2023-07-31T03:43:50;98370.47;;;14.63;55.77
65534;BME280;53640;55.838;37.184;2023-07-31T03:46:24;98398.31;;;14.85;55.60
65534;BME280;53640;55.838;37.184;2023-07-31T03:48:51;98364.78;;;14.70;55.15
65534;BME280;53640;55.838;37.184;2023-07-31T03:51:17;98310.78;;;14.41;55.31
65534;BME280;53640;55.838;37.184;2023-07-31T03:53:44;98376.00;;;14.94;55.44
65534;BME280;53640;55.838;37.184;2023-07-31T03:56:11;98394.53;;;15.07;55.56
65534;BME280;53640;55.838;37.184;2023-07-31T03:58:38;98380.34;;;15.00;55.49
65534;BME280;53640;55.838;37.184;2023-07-31T04:01:04;98407.34;;;15.22;55.10
65534;BME280;53640;55.838;37.184;2023-07-31T04:03:31;98401.34;;;15.20;55.30
65534;BME280;53640;55.838;37.184;2023-07-31T04:05:57;98347.09;;;14.93;55.41
65534;BME280;53640;55.838;37.184;2023-07-31T04:08:24;98408.19;;;15.32;54.91
65534;BME280;53640;55.838;37.184;2023-07-31T04:10:50;98426.47;;;15.47;54.68
65534;BME280;53640;55.838;37.184;2023-07-31T04:13:16;98390.47;;;15.35;54.72
65534;BME280;53640;55.838;37.184;2023-07-31T04:15:48;98356.94;;;15.14;54.90
65534;BME280;53640;55.838;37.184;2023-07-31T04:18:15;98404.13;;;15.55;54.51
65534;BME280;53640;55.838;37.184;2023-07-31T04:20:41;98421.00;;;15.68;54.72
65534;BME280;53640;55.838;37.184;2023-07-31T04:23:08;98407.66;;;15.61;54.34
65534;BME280;53640;55.838;37.184;2023-07-31T04:25:34;98419.63;;;15.75;54.33
65534;BME280;53640;55.838;37.184;2023-07-31T04:28:01;98426.19;;;15.84;54.22
65534;BME280;53640;55.838;37.184;2023-07-31T04:30:27;98398.38;;;15.67;54.25
65534;BME280;53640;55.838;37.184;2023-07-31T04:32:54;98397.28;;;15.68;54.18
65534;BME280;53640;55.838;37.184;2023-07-31T04:35:20;98432.19;;;15.92;54.34
65534;BME280;53640;55.838;37.184;2023-07-31T04:37:46;98391.81;;;15.68;54.09
65534;BME280;53640;55.838;37.184;2023-07-31T04:40:15;98410.66;;;15.80;53.83
65534;BME280;53640;55.838;37.184;2023-07-31T04:42:42;98429.97;;;15.94;54.15
65534;BME280;53640;55.838;37.184;2023-07-31T04:45:09;98440.88;;;16.04;53.76
65534;BME280;53640;55.838;37.184;2023-07-31T04:47:35;98417.16;;;15.94;53.91
65534;BME280;53640;55.838;37.184;2023-07-31T04:50:02;98413.06;;;15.97;53.84
65534;BME280;53640;55.838;37.184;2023-07-31T04:52:29;98432.69;;;16.14;53.92
65534;BME280;53640;55.838;37.184;2023-07-31T04:54:56;98440.81;;;16.24;54.04
65534;BME280;53640;55.838;37.184;2023-07-31T04:57:23;98425.56;;;16.18;53.99
65534;BME280;53640;55.838;37.184;2023-07-31T04:59:50;98410.84;;;16.14;53.83
65534;BME280;53640;55.838;37.184;2023-07-31T05:02:16;98444.38;;;16.35;53.80
65534;BME280;53640;55.838;37.184;2023-07-31T05:04:42;98444.63;;;16.44;53.32
65534;BME280;53640;55.838;37.184;2023-07-31T05:07:10;98428.78;;;16.46;53.38
65534;BME280;53640;55.838;37.184;2023-07-31T05:09:36;98423.88;;;16.48;53.08
65534;BME280;53640;55.838;37.184;2023-07-31T05:12:04;98362.22;;;16.16;53.01
65534;BME280;53640;55.838;37.184;2023-07-31T05:14:32;98409.88;;;16.54;52.85
65534;BME280;53640;55.838;37.184;2023-07-31T05:16:59;98413.41;;;16.60;52.90
65534;BME280;53640;55.838;37.184;2023-07-31T05:19:26;98423.19;;;16.66;52.29
65534;BME280;53640;55.838;37.184;2023-07-31T05:21:52;98432.41;;;16.86;52.61
65534;BME280;53640;55.838;37.184;2023-07-31T05:24:19;98410.56;;;16.80;51.94
65534;BME280;53640;55.838;37.184;2023-07-31T05:26:45;98426.34;;;16.94;52.09
65534;BME280;53640;55.838;37.184;2023-07-31T05:29:15;98442.91;;;17.18;52.41
65534;BME280;53640;55.838;37.184;2023-07-31T05:31:42;98409.59;;;17.05;51.95
65534;BME280;53640;55.838;37.184;2023-07-31T05:34:10;98413.94;;;17.17;51.64
65534;BME280;53640;55.838;37.184;2023-07-31T05:36:36;98424.22;;;17.30;50.40
65534;BME280;53640;55.838;37.184;2023-07-31T05:39:03;98403.72;;;17.27;50.36
65534;BME280;53640;55.838;37.184;2023-07-31T05:41:36;98405.28;;;17.39;50.83
65534;BME280;53640;55.838;37.184;2023-07-31T05:44:03;98414.50;;;17.48;50.41
65534;BME280;53640;55.838;37.184;2023-07-31T05:46:30;98433.75;;;17.72;50.69
65534;BME280;53640;55.838;37.184;2023-07-31T05:48:57;98450.53;;;17.94;50.53
65534;BME280;53640;55.838;37.184;2023-07-31T05:51:23;98441.38;;;18.04;50.35
65534;BME280;53640;55.838;37.184;2023-07-31T05:53:51;98444.84;;;18.15;49.82
65534;BME280;53640;55.838;37.184;2023-07-31T05:56:17;98429.03;;;18.07;50.00
65534;BME280;53640;55.838;37.184;2023-07-31T05:58:44;98440.06;;;18.25;49.39
65534;BME280;53640;55.838;37.184;2023-07-31T06:01:10;98393.38;;;18.12;48.97
65534;BME280;53640;55.838;37.184;2023-07-31T06:03:36;98454.22;;;18.57;47.44
65534;BME280;53640;55.838;37.184;2023-07-31T06:06:03;98452.72;;;18.69;47.55
65534;BME280;53640;55.838;37.184;2023-07-31T06:08:29;98418.28;;;18.58;47.22
65534;BME280;53640;55.838;37.184;2023-07-31T06:10:56;98440.38;;;18.91;46.71
65534;BME280;53640;55.838;37.184;2023-07-31T06:13:23;98386.91;;;18.69;46.87
65534;BME280;53640;55.838;37.184;2023-07-31T06:15:51;98424.50;;;19.07;46.57
65534;BME280;53640;55.838;37.184;2023-07-31T06:18:17;98445.25;;;19.32;46.30
65534;BME280;53640;55.838;37.184;2023-07-31T06:20:43;98423.09;;;19.28;44.51
65534;BME280;53640;55.838;37.184;2023-07-31T06:23:10;98407.44;;;19.29;44.70
65534;BME280;53640;55.838;37.184;2023-07-31T06:25:37;98447.25;;;19.64;44.09
65534;BME280;53640;55.838;37.184;2023-07-31T06:28:04;98443.50;;;19.74;43.79
65534;BME280;53640;55.838;37.184;2023-07-31T06:30:30;98396.34;;;19.71;43.87
65534;BME280;53640;55.838;37.184;2023-07-31T06:32:58;98434.66;;;20.23;43.73
65534;BME280;53640;55.838;37.184;2023-07-31T06:35:24;98418.38;;;20.27;42.88
65534;BME280;53640;55.838;37.184;2023-07-31T06:37:53;98400.16;;;20.31;42.70
65534;BME280;53640;55.838;37.184;2023-07-31T06:40:22;98411.03;;;20.50;41.34
65534;BME280;53640;55.838;37.184;2023-07-31T06:42:48;98418.47;;;20.63;41.54
65534;BME280;53640;55.838;37.184;2023-07-31T06:45:15;98396.41;;;20.54;41.14
65534;BME280;53640;55.838;37.184;2023-07-31T06:47:43;98379.78;;;20.59;40.17
65534;BME280;53640;55.838;37.184;2023-07-31T06:50:09;98432.81;;;21.01;39.86
65534;BME280;53640;55.838;37.184;2023-07-31T06:52:36;98441.31;;;21.13;39.37
65534;BME280;53640;55.838;37.184;2023-07-31T06:55:21;98440.91;;;21.20;39.20
65534;BME280;53640;55.838;37.184;2023-07-31T06:57:50;98412.38;;;21.16;38.70
65534;BME280;53640;55.838;37.184;2023-07-31T07:00:18;98450.22;;;21.47;37.74
65534;BME280;53640;55.838;37.184;2023-07-31T07:02:44;98456.28;;;21.57;36.89
65534;BME280;53640;55.838;37.184;2023-07-31T07:05:11;98428.69;;;21.49;36.82
65534;BME280;53640;55.838;37.184;2023-07-31T07:07:37;98418.34;;;21.54;36.58
65534;BME280;53640;55.838;37.184;2023-07-31T07:10:04;98423.94;;;21.63;35.83
65534;BME280;53640;55.838;37.184;2023-07-31T07:12:33;98446.13;;;21.89;35.29
65534;BME280;53640;55.838;37.184;2023-07-31T07:15:00;98456.56;;;22.01;35.07
65534;BME280;53640;55.838;37.184;2023-07-31T07:17:28;98433.22;;;21.98;34.54
65534;BME280;53640;55.838;37.184;2023-07-31T07:20:00;98420.94;;;22.04;34.89
65534;BME280;53640;55.838;37.184;2023-07-31T07:22:27;98409.25;;;22.07;34.73
65534;BME280;53640;55.838;37.184;2023-07-31T07:24:53;98447.19;;;22.42;34.51
65534;BME280;53640;55.838;37.184;2023-07-31T07:27:22;98454.06;;;22.53;33.95
65534;BME280;53640;55.838;37.184;2023-07-31T07:29:50;98420.31;;;22.47;33.99
65534;BME280;53640;55.838;37.184;2023-07-31T07:32:20;98424.22;;;22.55;33.49
65534;BME280;53640;55.838;37.184;2023-07-31T07:34:48;98419.34;;;22.60;33.55
65534;BME280;53640;55.838;37.184;2023-07-31T07:37:15;98422.84;;;22.75;33.48
65534;BME280;53640;55.838;37.184;2023-07-31T07:39:42;98454.22;;;22.96;33.38
65534;BME280;53640;55.838;37.184;2023-07-31T07:42:08;98440.25;;;22.93;32.97
65534;BME280;53640;55.838;37.184;2023-07-31T07:44:35;98421.44;;;22.95;33.09
65534;BME280;53640;55.838;37.184;2023-07-31T07:47:01;98447.56;;;23.23;33.69
65534;BME280;53640;55.838;37.184;2023-07-31T07:49:28;98409.75;;;23.06;33.83
65534;BME280;53640;55.838;37.184;2023-07-31T07:51:54;98442.72;;;23.46;33.57
65534;BME280;53640;55.838;37.184;2023-07-31T07:54:20;98400.31;;;23.25;32.38
65534;BME280;53640;55.838;37.184;2023-07-31T07:56:47;98420.78;;;23.50;32.84
65534;BME280;53640;55.838;37.184;2023-07-31T07:59:14;98423.56;;;23.59;32.66
65534;BME280;53640;55.838;37.184;2023-07-31T08:01:40;98451.97;;;23.85;31.27
65534;BME280;53640;55.838;37.184;2023-07-31T08:04:08;98437.94;;;23.90;31.27
65534;BME280;53640;55.838;37.184;2023-07-31T08:06:38;98438.25;;;23.97;30.54
65534;BME280;53640;55.838;37.184;2023-07-31T08:09:05;98454.66;;;24.20;30.82
65534;BME280;53640;55.838;37.184;2023-07-31T08:11:33;98444.41;;;24.20;30.70
65534;BME280;53640;55.838;37.184;2023-07-31T08:14:00;98434.47;;;24.19;30.37
65534;BME280;53640;55.838;37.184;2023-07-31T08:16:27;98367.53;;;23.96;30.30
65534;BME280;53640;55.838;37.184;2023-07-31T08:18:53;98391.34;;;24.18;29.31
65534;BME280;53640;55.838;37.184;2023-07-31T08:21:21;98459.19;;;24.71;29.53
65534;BME280;53640;55.838;37.184;2023-07-31T08:23:47;98457.09;;;24.89;29.38
65534;BME280;53640;55.838;37.184;2023-07-31T08:26:15;98419.56;;;24.80;28.42
65534;BME280;53640;55.838;37.184;2023-07-31T08:28:43;98424.69;;;24.90;28.23
65534;BME280;53640;55.838;37.184;2023-07-31T08:31:09;98424.63;;;24.98;28.17
65534;BME280;53640;55.838;37.184;2023-07-31T08:33:37;98367.03;;;24.41;28.60
65534;BME280;53640;55.838;37.184;2023-07-31T08:36:04;98387.06;;;24.38;27.78
65534;BME280;53640;55.838;37.184;2023-07-31T08:38:35;98382.09;;;24.23;28.33
65534;BME280;53640;55.838;37.184;2023-07-31T08:44:55;98391.91;;;24.12;28.37
65534;BME280;53640;55.838;37.184;2023-07-31T08:47:25;98402.97;;;24.12;28.22
65534;BME280;53640;55.838;37.184;2023-07-31T08:49:53;98421.66;;;24.44;28.14
65534;BME280;53640;55.838;37.184;2023-07-31T08:52:22;98442.09;;;24.69;27.93
65534;BME280;53640;55.838;37.184;2023-07-31T08:54:48;98462.91;;;24.96;28.47
65534;BME280;53640;55.838;37.184;2023-07-31T08:57:16;98427.34;;;25.07;27.54
65534;BME280;53640;55.838;37.184;2023-07-31T08:59:43;98434.31;;;25.34;27.72
65534;BME280;53640;55.838;37.184;2023-07-31T09:02:10;98439.53;;;25.69;27.57
65534;BME280;53640;55.838;37.184;2023-07-31T09:04:37;98433.56;;;26.12;27.00
65534;BME280;53640;55.838;37.184;2023-07-31T09:07:05;98457.22;;;26.67;26.34
65534;BME280;53640;55.838;37.184;2023-07-31T09:09:31;98458.94;;;27.09;25.74
65534;BME280;53640;55.838;37.184;2023-07-31T09:12:01;98423.91;;;26.92;25.17
65534;BME280;53640;55.838;37.184;2023-07-31T09:14:38;98382.72;;;26.69;25.66
65534;BME280;53640;55.838;37.184;2023-07-31T09:17:06;98396.59;;;26.94;25.58
65534;BME280;53640;55.838;37.184;2023-07-31T09:19:35;98427.47;;;26.92;24.54
65534;BME280;53640;55.838;37.184;2023-07-31T09:22:05;98412.22;;;26.62;24.88
65534;BME280;53640;55.838;37.184;2023-07-31T09:24:34;98460.16;;;27.36;24.86
65534;BME280;53640;55.838;37.184;2023-07-31T09:27:01;98460.84;;;27.33;24.81
65534;BME280;53640;55.838;37.184;2023-07-31T09:29:29;98467.63;;;27.07;25.13
65534;BME280;53640;55.838;37.184;2023-07-31T09:31:56;98424.94;;;26.75;25.13
65534;BME280;53640;55.838;37.184;2023-07-31T09:34:30;98433.50;;;26.82;25.33
65534;BME280;53640;55.838;37.184;2023-07-31T09:37:02;98434.81;;;27.25;25.03
65534;BME280;53640;55.838;37.184;2023-07-31T09:39:45;98458.06;;;28.01;24.63
65534;BME280;53640;55.838;37.184;2023-07-31T09:42:12;98441.84;;;28.51;23.98
65534;BME280;53640;55.838;37.184;2023-07-31T09:44:40;98463.72;;;29.16;23.49
65534;BME280;53640;55.838;37.184;2023-07-31T09:47:28;98459.06;;;29.59;23.49
65534;BME280;53640;55.838;37.184;2023-07-31T09:49:56;98453.13;;;29.79;22.41
65534;BME280;53640;55.838;37.184;2023-07-31T09:52:25;98462.56;;;29.94;22.59
65534;BME280;53640;55.838;37.184;2023-07-31T09:54:52;98450.94;;;29.92;21.86
65534;BME280;53640;55.838;37.184;2023-07-31T09:57:19;98429.88;;;29.75;22.67
65534;BME280;53640;55.838;37.184;2023-07-31T09:59:48;98447.97;;;29.43;22.53
65534;BME280;53640;55.838;37.184;2023-07-31T10:02:22;98442.88;;;29.10;22.78
65534;BME280;53640;55.838;37.184;2023-07-31T10:04:54;98448.41;;;28.74;23.15
65534;BME280;53640;55.838;37.184;2023-07-31T10:07:23;98425.22;;;28.39;23.44
65534;BME280;53640;55.838;37.184;2023-07-31T10:09:53;98445.47;;;28.51;23.21
65534;BME280;53640;55.838;37.184;2023-07-31T10:12:22;98442.31;;;29.04;22.86
65534;BME280;53640;55.838;37.184;2023-07-31T10:14:54;98440.31;;;29.78;22.49
65534;BME280;53640;55.838;37.184;2023-07-31T10:17:24;98453.06;;;30.64;22.02
65534;BME280;53640;55.838;37.184;2023-07-31T10:19:53;98427.69;;;30.76;21.20
65534;BME280;53640;55.838;37.184;2023-07-31T10:22:21;98463.03;;;30.42;20.90
65534;BME280;53640;55.838;37.184;2023-07-31T10:24:48;98444.44;;;29.85;21.88
65534;BME280;53640;55.838;37.184;2023-07-31T10:27:15;98411.56;;;29.16;22.01
65534;BME280;53640;55.838;37.184;2023-07-31T10:29:43;98467.69;;;28.99;22.37
65534;BME280;53640;55.838;37.184;2023-07-31T10:32:11;98455.53;;;28.56;22.68
65534;BME280;53640;55.838;37.184;2023-07-31T10:34:39;98432.69;;;28.03;23.57
65534;BME280;53640;55.838;37.184;2023-07-31T10:42:31;98458.03;;;27.57;24.55
65534;BME280;53640;55.838;37.184;2023-07-31T10:44:59;98429.84;;;27.59;24.83
65534;BME280;53640;55.838;37.184;2023-07-31T10:47:26;98449.81;;;28.05;24.48
65534;BME280;53640;55.838;37.184;2023-07-31T10:50:11;98421.38;;;28.11;24.23
65534;BME280;53640;55.838;37.184;2023-07-31T10:52:38;98456.47;;;28.32;24.69
65534;BME280;53640;55.838;37.184;2023-07-31T10:57:46;98418.22;;;27.97;24.45
65534;BME280;53640;55.838;37.184;2023-07-31T11:00:30;98445.59;;;27.95;24.82
65534;BME280;53640;55.838;37.184;2023-07-31T11:03:26;98444.06;;;27.70;25.45
65534;BME280;53640;55.838;37.184;2023-07-31T11:06:02;98440.00;;;27.39;25.49
65534;BME280;53640;55.838;37.184;2023-07-31T11:08:35;98467.00;;;27.26;25.52
65534;BME280;53640;55.838;37.184;2023-07-31T11:13:40;98445.22;;;26.63;26.88
65534;BME280;53640;55.838;37.184;2023-07-31T11:16:08;98435.56;;;26.36;26.78
65534;BME280;53640;55.838;37.184;2023-07-31T11:18:35;98448.97;;;26.22;27.25
65534;BME280;53640;55.838;37.184;2023-07-31T11:21:01;98447.06;;;26.02;27.81
65534;BME280;53640;55.838;37.184;2023-07-31T11:23:30;98424.88;;;25.68;27.70
65534;BME280;53640;55.838;37.184;2023-07-31T11:26:00;98463.97;;;25.76;28.27
65534;BME280;53640;55.838;37.184;2023-07-31T11:28:31;98464.78;;;25.55;29.10
65534;BME280;53640;55.838;37.184;2023-07-31T11:31:00;98469.44;;;25.42;29.24
65534;BME280;53640;55.838;37.184;2023-07-31T11:33:27;98428.34;;;25.03;29.62
65534;BME280;53640;55.838;37.184;2023-07-31T11:35:54;98463.00;;;25.09;29.85
65534;BME280;53640;55.838;37.184;2023-07-31T11:38:28;98442.03;;;24.78;30.29
65534;BME280;53640;55.838;37.184;2023-07-31T11:41:02;98469.41;;;24.71;30.56
65534;BME280;53640;55.838;37.184;2023-07-31T11:43:31;98472.09;;;24.59;31.02
65534;BME280;53640;55.838;37.184;2023-07-31T11:45:59;98457.47;;;24.41;31.26
65534;BME280;53640;55.838;37.184;2023-07-31T11:48:28;98461.75;;;24.38;31.35
65534;BME280;53640;55.838;37.184;2023-07-31T11:51:03;98432.69;;;24.15;31.45
65534;BME280;53640;55.838;37.184;2023-07-31T11:53:37;98474.78;;;24.29;31.86
65534;BME280;53640;55.838;37.184;2023-07-31T11:56:05;98462.59;;;24.21;32.03
65534;BME280;53640;55.838;37.184;2023-07-31T11:58:34;98472.34;;;24.27;32.21
65534;BME280;53640;55.838;37.184;2023-07-31T12:01:01;98460.00;;;24.25;32.35
65534;BME280;53640;55.838;37.184;2023-07-31T12:03:28;98431.56;;;24.16;32.09
65534;BME280;53640;55.838;37.184;2023-07-31T12:05:55;98467.56;;;24.45;32.18
65534;BME280;53640;55.838;37.184;2023-07-31T12:08:23;98468.34;;;24.55;31.92
65534;BME280;53640;55.838;37.184;2023-07-31T12:10:51;98447.81;;;24.56;32.22
65534;BME280;53640;55.838;37.184;2023-07-31T12:13:26;98454.75;;;24.70;31.72
65534;BME280;53640;55.838;37.184;2023-07-31T12:15:57;98469.03;;;24.81;31.49
65534;BME280;53640;55.838;37.184;2023-07-31T12:18:26;98468.84;;;24.86;31.33
65534;BME280;53640;55.838;37.184;2023-07-31T12:23:23;98435.53;;;24.74;31.32
65534;BME280;53640;55.838;37.184;2023-07-31T12:28:54;98461.31;;;24.95;30.44
65534;BME280;53640;55.838;37.184;2023-07-31T12:31:22;98439.53;;;24.85;30.57
65534;BME280;53640;55.838;37.184;2023-07-31T12:33:50;98440.41;;;24.77;31.00
65534;BME280;53640;55.838;37.184;2023-07-31T12:36:19;98448.22;;;24.75;30.84
65534;BME280;53640;55.838;37.184;2023-07-31T12:38:46;98462.19;;;24.79;30.96
65534;BME280;53640;55.838;37.184;2023-07-31T12:41:16;98481.13;;;24.76;30.92
65534;BME280;53640;55.838;37.184;2023-07-31T12:43:44;98448.47;;;24.52;30.56
65534;BME280;53640;55.838;37.184;2023-07-31T12:46:13;98437.31;;;24.40;31.61
65534;BME280;53640;55.838;37.184;2023-07-31T12:48:42;98381.03;;;23.98;31.63
65534;BME280;53640;55.838;37.184;2023-07-31T12:51:12;98388.66;;;23.92;31.53
65534;BME280;53640;55.838;37.184;2023-07-31T12:53:49;98424.28;;;24.11;31.77
65534;BME280;53640;55.838;37.184;2023-07-31T12:56:28;98368.31;;;23.59;32.07
65534;BME280;53640;55.838;37.184;2023-07-31T12:58:56;98447.22;;;23.77;33.38
65534;BME280;53640;55.838;37.184;2023-07-31T13:01:22;98483.16;;;23.94;34.15
65534;BME280;53640;55.838;37.184;2023-07-31T13:03:48;98491.66;;;23.63;35.13
65534;BME280;53640;55.838;37.184;2023-07-31T13:06:15;98483.97;;;23.34;35.69
65534;BME280;53640;55.838;37.184;2023-07-31T13:08:41;98473.06;;;23.03;36.15
65534;BME280;53640;55.838;37.184;2023-07-31T13:11:08;98488.81;;;23.02;36.45
65534;BME280;53640;55.838;37.184;2023-07-31T13:13:34;98474.41;;;22.66;36.82
65534;BME280;53640;55.838;37.184;2023-07-31T13:16:00;98485.91;;;22.59;37.28
65534;BME280;53640;55.838;37.184;2023-07-31T13:18:27;98486.34;;;22.52;37.30
65534;BME280;53640;55.838;37.184;2023-07-31T13:20:53;98510.69;;;22.50;37.52